La Valley, Colorado
Current Conditions -  °F | °C
As of 3:11 PM on Saturday 25 Oct 2014 (Local Time) from KVTP Reporting Station
Clear Clear  
Wind Chill: 63°   Ceiling: Unl
Heat Index: 63°   Visibility: 10mi
Dew Point: 14°   Wind: 8mph
Humidity: 15%   Direction: 200°SSW
Pressure: 30.45"   Gusts: 20mph
Location:  37.1568°N, 105.289°W
Report Text: KVTP 252111Z AUTO 20007G17KT 180V240 10SM CLR 17/M10 A3045 RMK AO2
Loading
Personal Weather Stations






























Interactive Weather Map
Tropical Storm Tracking
New forecast layout! Learn more

10-Day Weather Forecast

Advertisements
Track Severe Weather on mobile